createdAt,value
2019-04-05T00:01:26.518Z,97774.22
2019-04-05T00:03:53.269Z,97770.56
2019-04-05T00:06:19.999Z,97770.28
2019-04-05T00:08:46.739Z,97772.91
2019-04-05T00:11:18.434Z,97779.99
2019-04-05T00:13:45.233Z,97769.22
2019-04-05T00:16:11.963Z,97767.94
2019-04-05T00:18:38.715Z,97771.08
2019-04-05T00:21:05.649Z,97776.33
2019-04-05T00:23:32.384Z,97770.81
2019-04-05T00:25:59.142Z,97768.70
2019-04-05T00:28:28.827Z,97776.84
2019-04-05T00:30:55.583Z,97776.84
2019-04-05T00:33:25.443Z,97790.22
2019-04-05T00:35:52.248Z,97790.23
2019-04-05T00:38:19.007Z,97791.30
2019-04-05T00:40:45.861Z,97790.52
2019-04-05T00:43:12.789Z,97795.22
2019-04-05T00:45:41.987Z,97790.52
2019-04-05T00:48:10.551Z,97792.33
2019-04-05T00:50:37.492Z,97788.40
2019-04-05T00:53:04.350Z,97787.88
2019-04-05T00:55:33.406Z,97789.46
2019-04-05T00:58:00.364Z,97783.92
2019-04-05T01:00:27.122Z,97786.28
2019-04-05T01:02:53.905Z,97785.23
2019-04-05T01:05:20.891Z,97780.03
2019-04-05T01:07:48.145Z,97778.19
2019-04-05T01:10:15.563Z,97778.42
2019-04-05T01:12:42.451Z,97779.48
2019-04-05T01:15:09.861Z,97776.07
2019-04-05T01:17:36.891Z,97527.42
2019-04-05T01:20:08.731Z,97769.25
2019-04-05T01:22:38.530Z,97764.27
2019-04-05T01:25:05.272Z,97773.20
2019-04-05T01:27:32.208Z,97769.51
2019-04-05T01:29:58.949Z,97769.74
2019-04-05T01:32:26.082Z,97774.95
2019-04-05T01:34:52.812Z,97774.95
2019-04-05T01:37:19.875Z,97765.79
2019-04-05T01:39:46.562Z,97765.25
2019-04-05T01:42:13.292Z,97768.39
2019-04-05T01:44:40.049Z,97754.77
2019-04-05T01:47:06.806Z,97749.75
2019-04-05T01:49:33.519Z,97751.34
2019-04-05T01:52:00.283Z,97751.34
2019-04-05T01:54:29.189Z,97751.61
2019-04-05T01:56:55.761Z,97736.16
2019-04-05T01:59:22.470Z,97747.72
2019-04-05T02:01:49.216Z,97747.72
2019-04-05T02:04:15.990Z,97739.62
2019-04-05T02:06:42.710Z,97748.01
2019-04-05T02:09:09.951Z,97747.77
2019-04-05T02:11:36.672Z,97753.52
2019-04-05T02:14:03.394Z,97753.52
2019-04-05T02:16:30.136Z,97753.27
2019-04-05T02:18:57.137Z,97755.12
2019-04-05T02:21:24.019Z,97738.08
2019-04-05T02:23:50.794Z,97753.80
2019-04-05T02:26:17.534Z,97760.10
2019-04-05T02:28:44.276Z,97758.25
2019-04-05T02:31:11.158Z,97772.41
2019-04-05T02:33:37.911Z,97765.85
2019-04-05T02:36:04.706Z,97765.85
2019-04-05T02:38:31.567Z,97775.55
2019-04-05T02:40:59.090Z,97775.56
2019-04-05T02:43:26.607Z,97801.53
2019-04-05T02:45:53.369Z,97790.23
2019-04-05T02:48:20.275Z,97795.23
2019-04-05T02:50:48.690Z,97790.52
2019-04-05T02:53:15.479Z,97793.14
2019-04-05T02:55:42.351Z,97788.41
2019-04-05T02:58:10.448Z,97788.41
2019-04-05T03:00:37.313Z,97788.16
2019-04-05T03:03:04.343Z,97793.38
2019-04-05T03:05:31.066Z,97793.38
2019-04-05T03:07:57.818Z,97800.45
2019-04-05T03:10:54.188Z,97794.97
2019-04-05T03:13:21.564Z,97784.47
2019-04-05T03:15:48.297Z,97784.47
2019-04-05T03:18:15.032Z,97793.13
2019-04-05T03:20:41.913Z,97793.13
2019-04-05T03:23:09.230Z,97792.86
2019-04-05T03:25:36.616Z,97785.52
2019-04-05T03:28:03.369Z,97790.25
2019-04-05T03:30:30.170Z,97786.33
2019-04-05T03:32:57.005Z,97789.19
2019-04-05T03:35:23.787Z,97788.39
2019-04-05T03:37:50.580Z,97776.86
2019-04-05T03:40:17.322Z,97785.80
2019-04-05T03:42:44.113Z,97784.73
2019-04-05T03:45:11.105Z,97784.73
2019-04-05T03:47:37.841Z,97785.79
2019-04-05T03:50:05.670Z,97782.13
2019-04-05T03:52:32.403Z,97791.02
2019-04-05T03:55:00.757Z,97791.28
2019-04-05T03:57:27.500Z,97800.22
2019-04-05T03:59:54.236Z,97795.77
2019-04-05T04:02:23.521Z,97793.14
2019-04-05T04:04:49.821Z,97789.20
2019-04-05T04:07:19.372Z,97792.34
2019-04-05T04:09:46.106Z,97798.64
2019-04-05T04:12:12.880Z,97798.64
2019-04-05T04:14:39.704Z,97795.48
2019-04-05T04:17:12.701Z,97794.17
2019-04-05T04:19:35.275Z,97796.00
2019-04-05T04:22:22.874Z,97795.49
2019-04-05T04:24:49.924Z,97800.73
2019-04-05T04:27:16.952Z,97798.89
2019-04-05T04:29:43.921Z,97798.09
2019-04-05T04:32:10.764Z,97798.63
2019-04-05T04:34:37.485Z,97791.55
2019-04-05T04:37:04.314Z,97802.04
2019-04-05T04:39:31.032Z,97797.30
2019-04-05T04:41:59.142Z,97799.14
2019-04-05T04:44:29.466Z,97798.89
2019-04-05T04:46:56.191Z,97798.89
2019-04-05T04:49:22.932Z,97798.63
2019-04-05T04:51:49.649Z,97792.33
2019-04-05T04:54:16.442Z,97780.01
2019-04-05T04:56:43.521Z,97784.73
2019-04-05T04:59:10.263Z,97786.05
2019-04-05T05:01:39.886Z,97779.77
2019-04-05T05:04:08.272Z,97775.29
2019-04-05T05:06:35.409Z,97785.27
2019-04-05T05:09:04.828Z,97786.30
2019-04-05T05:11:33.926Z,97786.84
2019-04-05T05:14:01.004Z,97786.84
2019-04-05T05:16:28.148Z,97789.44
2019-04-05T05:18:55.130Z,97801.01
2019-04-05T05:21:22.004Z,97803.09
2019-04-05T05:23:48.787Z,97805.44
2019-04-05T05:26:15.586Z,97810.69
2019-04-05T05:28:43.394Z,97813.33
2019-04-05T05:31:11.316Z,97810.44
2019-04-05T05:33:38.359Z,97808.34
2019-04-05T05:36:05.224Z,97804.67
2019-04-05T05:38:32.100Z,97804.15
2019-04-05T05:40:59.113Z,97808.08
2019-04-05T05:43:26.541Z,97808.85
2019-04-05T05:45:53.540Z,97814.63
2019-04-05T05:48:20.468Z,97819.36
2019-04-05T05:50:47.822Z,97810.42
2019-04-05T05:53:14.576Z,97816.72
2019-04-05T05:55:41.326Z,97810.45
2019-04-05T05:58:08.139Z,97808.61
2019-04-05T06:00:34.976Z,97811.76
2019-04-05T06:03:01.825Z,97811.76
2019-04-05T06:05:28.990Z,97813.31
2019-04-05T06:07:56.325Z,97811.21
2019-04-05T06:10:23.052Z,97808.59
2019-04-05T06:12:50.202Z,97807.56
2019-04-05T06:15:16.965Z,97814.36
2019-04-05T06:17:43.917Z,97812.55
2019-04-05T06:20:11.423Z,97811.73
2019-04-05T06:22:38.206Z,97815.92
2019-04-05T06:25:04.995Z,97820.40
2019-04-05T06:27:31.761Z,97811.22
2019-04-05T06:29:58.609Z,97820.64
2019-04-05T06:32:25.863Z,97819.05
2019-04-05T06:34:52.680Z,97820.89
2019-04-05T06:37:19.453Z,97824.30
2019-04-05T06:39:46.435Z,97823.52
2019-04-05T06:42:14.015Z,97824.82
2019-04-05T06:44:40.813Z,97821.95
2019-04-05T06:47:07.551Z,97820.09
2019-04-05T06:49:34.431Z,97821.16
2019-04-05T06:52:01.235Z,97819.82
2019-04-05T06:54:28.100Z,97822.20
2019-04-05T06:56:55.110Z,97816.43
2019-04-05T06:59:22.361Z,97827.97
2019-04-05T07:01:49.530Z,97812.46
2019-04-05T07:04:16.330Z,97819.27
2019-04-05T07:06:43.064Z,97820.09
2019-04-05T07:09:13.698Z,97826.38
2019-04-05T07:11:40.554Z,97826.34
2019-04-05T07:14:08.954Z,97817.67
2019-04-05T07:16:35.689Z,97824.23
2019-04-05T07:19:02.461Z,97808.48
2019-04-05T07:21:29.205Z,97808.72
2019-04-05T07:23:56.067Z,97817.63
2019-04-05T07:26:22.830Z,97823.91
2019-04-05T07:28:51.506Z,97807.06
2019-04-05T07:31:18.297Z,97814.95
2019-04-05T07:33:45.053Z,97813.39
2019-04-05T07:36:12.271Z,97818.36
2019-04-05T07:38:39.037Z,97822.64
2019-04-05T07:41:09.501Z,97819.78
2019-04-05T07:43:36.295Z,97820.06
2019-04-05T07:46:03.225Z,97826.30
2019-04-05T07:48:44.059Z,97822.83
2019-04-05T07:51:01.062Z,97827.55
2019-04-05T07:53:27.851Z,97823.09
2019-04-05T07:55:54.743Z,97815.99
2019-04-05T07:58:24.811Z,97811.53
2019-04-05T08:00:53.279Z,97814.16
2019-04-05T08:03:20.619Z,97814.39
2019-04-05T08:05:53.097Z,97809.64
2019-04-05T08:08:32.517Z,97809.45
2019-04-05T08:10:59.582Z,97812.61
2019-04-05T08:13:27.815Z,97817.33
2019-04-05T08:15:54.830Z,97820.76
2019-04-05T08:18:21.689Z,97815.92
2019-04-05T08:20:48.475Z,97823.22
2019-04-05T08:23:15.490Z,97823.70
2019-04-05T08:25:42.426Z,97834.42
2019-04-05T08:28:09.256Z,97826.90
2019-04-05T08:30:38.111Z,97823.77
2019-04-05T08:33:05.152Z,97821.59
2019-04-05T08:35:32.039Z,97821.52
2019-04-05T08:37:58.902Z,97821.14
2019-04-05T08:40:25.666Z,97815.26
2019-04-05T08:42:52.631Z,97809.87
2019-04-05T08:45:19.371Z,97824.62
2019-04-05T08:47:46.335Z,97818.59
2019-04-05T08:50:15.778Z,97818.05
2019-04-05T08:52:43.212Z,97841.14
2019-04-05T08:55:10.214Z,97824.38
2019-04-05T08:57:38.333Z,97837.77
2019-04-05T09:00:07.126Z,97816.05
2019-04-05T09:02:37.919Z,97816.17
2019-04-05T09:05:04.785Z,97817.76
2019-04-05T09:07:33.499Z,97810.83
2019-04-05T09:10:00.687Z,97796.02
2019-04-05T09:12:27.549Z,97791.99
2019-04-05T09:14:54.590Z,97798.70
2019-04-05T09:17:32.035Z,97798.79
2019-04-05T09:19:59.228Z,97795.45
2019-04-05T09:22:26.976Z,97790.20
2019-04-05T09:24:53.875Z,97794.94
2019-04-05T09:27:23.121Z,97790.37
2019-04-05T09:30:05.470Z,97787.09
2019-04-05T09:32:32.257Z,97835.58
2019-04-05T09:34:59.127Z,97795.22
2019-04-05T09:37:26.165Z,97796.03
2019-04-05T09:39:52.960Z,97795.62
2019-04-05T09:42:21.959Z,97797.01
2019-04-05T09:44:48.685Z,97798.80
2019-04-05T09:47:15.701Z,97797.20
2019-04-05T09:49:42.737Z,97801.52
2019-04-05T09:52:11.481Z,97828.50
2019-04-05T09:54:38.555Z,97794.80
2019-04-05T09:57:07.607Z,97797.53
2019-04-05T09:59:34.496Z,97790.13
2019-04-05T10:02:01.827Z,97796.28
2019-04-05T10:04:31.721Z,97782.87
2019-04-05T10:07:02.013Z,97814.31
2019-04-05T10:09:28.762Z,97793.92
2019-04-05T10:11:55.983Z,97793.40
2019-04-05T10:14:26.066Z,97794.28
2019-04-05T10:16:52.837Z,97782.61
2019-04-05T10:19:50.030Z,97794.06
2019-04-05T10:22:16.445Z,97791.92
2019-04-05T10:24:43.770Z,97789.89
2019-04-05T10:27:10.513Z,97796.16
2019-04-05T10:29:37.373Z,97788.70
2019-04-05T10:32:04.235Z,97774.00
2019-04-05T10:34:32.019Z,97776.27
2019-04-05T10:36:58.897Z,97770.63
2019-04-05T10:39:25.667Z,97764.86
2019-04-05T10:42:03.408Z,97772.67
2019-04-05T10:44:21.819Z,97782.04
2019-04-05T10:46:48.626Z,97764.46
2019-04-05T10:49:15.792Z,97789.36
2019-04-05T10:51:45.818Z,97757.89
2019-04-05T10:54:13.874Z,97751.52
2019-04-05T10:56:41.041Z,97758.66
2019-04-05T10:59:07.897Z,97759.08
2019-04-05T11:01:34.638Z,97795.17
2019-04-05T11:04:03.139Z,97750.73
2019-04-05T11:06:30.212Z,97752.58
2019-04-05T11:08:59.208Z,97749.72
2019-04-05T11:11:26.057Z,97746.66
2019-04-05T11:13:53.130Z,97743.95
2019-04-05T11:16:20.281Z,97750.32
2019-04-05T11:18:47.040Z,97750.51
2019-04-05T11:21:16.240Z,97739.56
2019-04-05T11:23:43.196Z,97774.09
2019-04-05T11:26:10.092Z,97748.95
2019-04-05T11:28:37.653Z,97745.56
2019-04-05T11:31:06.957Z,97767.95
2019-04-05T11:33:36.359Z,97748.86
2019-04-05T11:36:05.190Z,97747.84
2019-04-05T11:38:38.503Z,97738.13
2019-04-05T11:41:05.488Z,97740.54
2019-04-05T11:43:33.400Z,97747.75
2019-04-05T11:46:04.666Z,97744.32
2019-04-05T11:48:31.631Z,97743.27
2019-04-05T11:50:58.516Z,97754.36
2019-04-05T11:53:25.363Z,97745.50
2019-04-05T11:55:52.572Z,97777.20
2019-04-05T11:58:21.493Z,97741.08
2019-04-05T12:01:06.886Z,97741.76
2019-04-05T12:03:35.280Z,97735.91
2019-04-05T12:06:02.481Z,97731.95
2019-04-05T12:08:29.744Z,97768.95
2019-04-05T12:10:57.103Z,97719.84
2019-04-05T12:13:24.306Z,97730.89
2019-04-05T12:15:51.506Z,97724.19
2019-04-05T12:18:19.715Z,97719.88
2019-04-05T12:20:55.293Z,97719.24
2019-04-05T12:23:15.914Z,97717.77
2019-04-05T12:25:43.700Z,97720.23
2019-04-05T12:28:10.946Z,97713.54
2019-04-05T12:30:39.048Z,97720.20
2019-04-05T12:33:13.970Z,97716.39
2019-04-05T12:35:37.463Z,97708.87
2019-04-05T12:38:06.773Z,97715.95
2019-04-05T12:40:32.955Z,97718.56
2019-04-05T12:43:00.122Z,97717.84
2019-04-05T12:45:27.429Z,97722.48
2019-04-05T12:47:54.460Z,97731.46
2019-04-05T12:50:21.290Z,97723.05
2019-04-05T12:52:48.028Z,97721.73
2019-04-05T12:55:15.602Z,97724.82
2019-04-05T12:57:48.336Z,97718.09
2019-04-05T13:00:14.545Z,97723.42
2019-04-05T13:02:41.807Z,97720.19
2019-04-05T13:05:10.862Z,97715.77
2019-04-05T13:07:39.603Z,97719.27
2019-04-05T13:10:09.372Z,97719.16
2019-04-05T13:12:37.443Z,97717.08
2019-04-05T13:15:12.892Z,97717.00
2019-04-05T13:17:36.679Z,97716.80
2019-04-05T13:20:04.857Z,97715.20
2019-04-05T13:22:33.025Z,97708.53
2019-04-05T13:25:00.287Z,97759.72
2019-04-05T13:27:29.359Z,97714.07
2019-04-05T13:29:56.732Z,97717.77
2019-04-05T13:32:25.803Z,97712.41
2019-04-05T13:34:53.565Z,97707.53
2019-04-05T13:37:22.908Z,97706.05
2019-04-05T13:39:49.699Z,97737.11
2019-04-05T13:42:16.625Z,97707.33
2019-04-05T13:44:43.783Z,97706.76
2019-04-05T13:47:10.530Z,97706.55
2019-04-05T13:49:38.560Z,97681.94
2019-04-05T13:52:07.479Z,97693.77
2019-04-05T13:54:35.776Z,97686.75
2019-04-05T13:57:03.202Z,97684.08
2019-04-05T13:59:38.392Z,97691.50
2019-04-05T14:02:06.684Z,97689.14
2019-04-05T14:04:34.070Z,97689.30
2019-04-05T14:07:03.556Z,97686.36
2019-04-05T14:09:31.776Z,97683.80
2019-04-05T14:11:58.710Z,97712.95
2019-04-05T14:14:28.376Z,97700.82
2019-04-05T14:16:55.543Z,97679.80
2019-04-05T14:19:23.938Z,97681.38
2019-04-05T14:21:53.608Z,97682.68
2019-04-05T14:24:24.312Z,97686.48
2019-04-05T14:26:54.958Z,97689.52
2019-04-05T14:29:21.776Z,97697.36
2019-04-05T14:31:48.602Z,97693.84
2019-04-05T14:34:23.426Z,97686.59
2019-04-05T14:36:50.038Z,97694.50
2019-04-05T14:39:35.052Z,97684.41
2019-04-05T14:42:09.593Z,97694.89
2019-04-05T14:44:30.741Z,97689.88
2019-04-05T14:46:58.086Z,97686.12
2019-04-05T14:49:30.686Z,97690.97
2019-04-05T14:52:01.148Z,97696.70
2019-04-05T14:54:30.283Z,97697.91
2019-04-05T14:57:02.375Z,97698.38
2019-04-05T14:59:28.388Z,97689.83
2019-04-05T15:01:55.267Z,97684.36
2019-04-05T15:04:23.010Z,97716.91
2019-04-05T15:06:50.656Z,97690.31
2019-04-05T15:09:21.821Z,97209.72
2019-04-05T15:11:49.817Z,97690.38
2019-04-05T15:14:19.800Z,97722.39
2019-04-05T15:16:46.692Z,97684.21
2019-04-05T15:19:13.489Z,97683.65
2019-04-05T15:21:40.340Z,97718.33
2019-04-05T15:24:09.446Z,97684.37
2019-04-05T15:26:36.597Z,97694.56
2019-04-05T15:29:03.343Z,97692.32
2019-04-05T15:31:32.752Z,97680.78
2019-04-05T15:34:02.244Z,97715.06
2019-04-05T15:36:29.419Z,97682.72
2019-04-05T15:39:01.246Z,97685.41
2019-04-05T15:41:30.252Z,97686.00
2019-04-05T15:44:00.053Z,97695.72
2019-04-05T15:46:27.326Z,97699.17
2019-04-05T15:48:54.047Z,97688.91
2019-04-05T15:51:22.524Z,97707.41
2019-04-05T15:53:53.059Z,97689.05
2019-04-05T15:56:20.212Z,97700.09
2019-04-05T15:58:52.246Z,97695.55
2019-04-05T16:01:25.059Z,97689.69
2019-04-05T16:03:51.918Z,97687.58
2019-04-05T16:06:20.070Z,97711.94
2019-04-05T16:08:47.127Z,97694.92
2019-04-05T16:11:16.506Z,97694.17
2019-04-05T16:13:48.116Z,97687.14
2019-04-05T16:16:15.147Z,97711.49
2019-04-05T16:18:42.380Z,97722.25
2019-04-05T16:21:09.122Z,97700.72
2019-04-05T16:23:38.094Z,97706.37
2019-04-05T16:26:09.216Z,97699.48
2019-04-05T16:28:36.228Z,97709.97
2019-04-05T16:31:10.927Z,97730.47
2019-04-05T16:33:38.695Z,97728.10
2019-04-05T16:36:05.568Z,97716.56
2019-04-05T16:38:33.092Z,97710.77
2019-04-05T16:41:02.179Z,97715.02
2019-04-05T16:43:29.086Z,97710.33
2019-04-05T16:45:55.976Z,97726.67
2019-04-05T16:48:22.915Z,97708.54
2019-04-05T16:50:49.767Z,97713.72
2019-04-05T16:53:16.644Z,97719.64
2019-04-05T16:55:43.460Z,97756.83
2019-04-05T16:58:10.178Z,97718.94
2019-04-05T17:00:36.926Z,97491.70
2019-04-05T17:03:07.254Z,97709.86
2019-04-05T17:05:34.200Z,97699.05
2019-04-05T17:08:03.738Z,97726.78
2019-04-05T17:10:30.925Z,97709.95
2019-04-05T17:12:57.697Z,97724.47
2019-04-05T17:15:24.789Z,97712.88
2019-04-05T17:17:51.596Z,97746.16
2019-04-05T17:20:18.427Z,97711.93
2019-04-05T17:22:57.532Z,97717.14
2019-04-05T17:25:13.806Z,97739.83
2019-04-05T17:27:40.872Z,97720.59
2019-04-05T17:30:07.607Z,97721.66
2019-04-05T17:32:42.179Z,97715.24
2019-04-05T17:35:14.246Z,97713.42
2019-04-05T17:37:41.571Z,97729.80
2019-04-05T17:40:08.333Z,97711.34
2019-04-05T17:42:35.164Z,97717.03
2019-04-05T17:45:02.240Z,97712.58
2019-04-05T17:47:29.113Z,97712.05
2019-04-05T17:49:56.079Z,97710.94
2019-04-05T17:52:22.905Z,97709.30
2019-04-05T17:54:49.621Z,97711.23
2019-04-05T17:57:16.657Z,97618.48
2019-04-05T17:59:46.169Z,97713.11
2019-04-05T18:02:13.018Z,97715.30
2019-04-05T18:04:40.120Z,97715.80
2019-04-05T18:07:06.869Z,97715.21
2019-04-05T18:09:33.623Z,97725.75
2019-04-05T18:12:02.712Z,97718.14
2019-04-05T18:14:30.038Z,97726.78
2019-04-05T18:16:56.823Z,97720.95
2019-04-05T18:19:23.729Z,97726.55
2019-04-05T18:21:50.749Z,97731.82
2019-04-05T18:24:17.608Z,97731.81
2019-04-05T18:26:44.741Z,97724.44
2019-04-05T18:29:11.485Z,97721.83
2019-04-05T18:31:39.325Z,97721.28
2019-04-05T18:34:08.955Z,97736.38
2019-04-05T18:36:35.845Z,97731.84
2019-04-05T18:39:04.621Z,97727.42
2019-04-05T18:41:31.490Z,97729.34
2019-04-05T18:43:58.285Z,97733.35
2019-04-05T18:46:25.059Z,97731.80
2019-04-05T18:48:55.390Z,97741.02
2019-04-05T18:51:25.247Z,97743.39
2019-04-05T18:53:52.106Z,97783.77
2019-04-05T18:56:18.869Z,97786.14
2019-04-05T18:58:45.903Z,97745.25
2019-04-05T19:01:13.727Z,97747.44
2019-04-05T19:03:43.309Z,97755.08
2019-04-05T19:06:10.098Z,97755.56
2019-04-05T19:08:39.873Z,97756.11
2019-04-05T19:11:06.546Z,97745.91
2019-04-05T19:13:33.861Z,97746.70
2019-04-05T19:16:01.140Z,97748.52
2019-04-05T19:18:28.009Z,97756.20
2019-04-05T19:20:58.294Z,97755.10
2019-04-05T19:23:25.445Z,97794.30
2019-04-05T19:25:52.145Z,97754.60
2019-04-05T19:28:19.203Z,97751.23
2019-04-05T19:49:15.320Z,97750.94
2019-04-05T19:51:42.479Z,97756.16
2019-04-05T19:54:12.726Z,97783.02
2019-04-05T19:56:39.529Z,97796.70
2019-04-05T19:59:13.022Z,97743.33
2019-04-05T20:01:39.794Z,97787.04
2019-04-05T20:04:06.683Z,97739.42
2019-04-05T20:06:33.466Z,97742.75
2019-04-05T20:09:00.381Z,97745.17
2019-04-05T20:11:28.079Z,97738.84
2019-04-05T20:13:55.219Z,97746.98
2019-04-05T20:16:26.185Z,97745.86
2019-04-05T20:18:52.917Z,97742.45
2019-04-05T20:21:19.663Z,97744.56
2019-04-05T20:23:47.655Z,97734.01
2019-04-05T20:26:14.992Z,97736.43
2019-04-05T20:28:43.005Z,97513.23
2019-04-05T20:31:09.808Z,97748.18
2019-04-05T20:33:36.600Z,97716.38
2019-04-05T20:36:03.592Z,97747.17
2019-04-05T20:38:30.632Z,97753.81
2019-04-05T20:41:03.032Z,97750.67
2019-04-05T20:43:29.858Z,97753.05
2019-04-05T20:45:57.356Z,97749.81
2019-04-05T20:48:24.120Z,97761.71
2019-04-05T20:50:51.260Z,97743.83
2019-04-05T20:53:21.936Z,97744.33
2019-04-05T20:55:49.177Z,97750.34
2019-04-05T20:58:15.991Z,97748.55
2019-04-05T21:00:42.732Z,97752.56
2019-04-05T21:03:09.483Z,97790.81
2019-04-05T21:05:36.196Z,97757.09
2019-04-05T21:08:03.038Z,97754.44
2019-04-05T21:10:29.856Z,97764.39
2019-04-05T21:13:00.067Z,97755.69
2019-04-05T21:15:27.117Z,97761.19
2019-04-05T21:17:53.878Z,97755.41
2019-04-05T21:20:20.756Z,97752.28
2019-04-05T21:22:50.263Z,97748.88
2019-04-05T21:25:17.245Z,97758.84
2019-04-05T21:27:46.678Z,97769.66
2019-04-05T21:30:14.005Z,97763.84
2019-04-05T21:32:40.722Z,97756.27
2019-04-05T21:35:09.936Z,97759.22
2019-04-05T21:37:36.828Z,97795.80
2019-04-05T21:40:04.018Z,97762.86
2019-04-05T21:42:32.241Z,97756.75
2019-04-05T21:44:59.957Z,97759.87
2019-04-05T21:47:27.758Z,97756.42
2019-04-05T21:49:56.200Z,97760.99
2019-04-05T21:52:26.373Z,97755.46
2019-04-05T21:54:53.132Z,97750.46
2019-04-05T21:57:22.363Z,97752.59
2019-04-05T21:59:49.114Z,97745.19
2019-04-05T22:02:15.983Z,97750.46
2019-04-05T22:04:42.821Z,97735.47
2019-04-05T22:07:11.902Z,97757.02
2019-04-05T22:09:38.677Z,97747.30
2019-04-05T22:12:05.398Z,97754.20
2019-04-05T22:14:40.476Z,97747.64
2019-04-05T22:17:07.344Z,97749.19
2019-04-05T22:19:34.883Z,97747.56
2019-04-05T22:22:02.031Z,97749.95
2019-04-05T22:24:28.746Z,97747.64
2019-04-05T22:26:55.630Z,97743.59
2019-04-05T22:29:25.276Z,97748.55
2019-04-05T22:31:53.556Z,97759.08
2019-04-05T22:34:23.661Z,97742.88
2019-04-05T22:36:50.664Z,97758.67
2019-04-05T22:39:17.533Z,97749.94
2019-04-05T22:41:44.300Z,97743.61
2019-04-05T22:44:11.643Z,97748.95
2019-04-05T22:46:38.440Z,97752.66
2019-04-05T22:49:05.186Z,97740.86
2019-04-05T22:51:32.086Z,97775.04
2019-04-05T22:54:00.632Z,97744.50
2019-04-05T22:56:27.412Z,97742.34
2019-04-05T22:58:54.818Z,97747.44
2019-04-05T23:01:21.612Z,97788.81
2019-04-05T23:03:48.405Z,97747.33
2019-04-05T23:06:15.336Z,97772.52
2019-04-05T23:08:43.596Z,97747.23
2019-04-05T23:11:14.567Z,97744.33
2019-04-05T23:13:41.355Z,97749.27
2019-04-05T23:16:10.878Z,97755.94
2019-04-05T23:18:37.717Z,97784.91
2019-04-05T23:21:04.680Z,97745.23
2019-04-05T23:23:31.513Z,97788.27
2019-04-05T23:25:58.260Z,97747.53
2019-04-05T23:28:25.152Z,97787.02
2019-04-05T23:30:52.307Z,97752.05
2019-04-05T23:33:19.160Z,97746.54
2019-04-05T23:35:49.450Z,97746.05
2019-04-05T23:38:16.183Z,97748.97
2019-04-05T23:40:43.165Z,97741.88
2019-04-05T23:43:09.877Z,97742.88
2019-04-05T23:45:36.743Z,97746.83
2019-04-05T23:48:03.504Z,97737.33
2019-04-05T23:50:30.325Z,97740.25
2019-04-05T23:52:57.018Z,97754.15
2019-04-05T23:55:32.811Z,97738.08
2019-04-05T23:57:52.740Z,97737.77
